Flight Track Log - Related Links

Times and Time Zones

All times are in EDT time to prevent confusion due to time zone crossing. See the N135AJ flight status page for this flight to view local times or setup timezone preferences in your user account.

Time Position Orientation Groundspeed Altitude Reporting Facility
EDT Latitude Longitude Course Direction KTS MPH feet Rate Location/Type
Tue 05:47:35 PM 33.6167 -111.9333 284° West 181 208 2,300  Level Phoenix TRACON
Tue 05:49:16 PM 33.6333 -112.0128 284° West 197 227 6,000 2,135 Climbing Albuquerque Center
Tue 05:50:18 PM 33.6650 -112.0794 300° West 229 264 8,100 2,516 Climbing Albuquerque Center
Tue 05:51:20 PM 33.7497 -112.1003 348° North 290 334 11,200 2,758 Climbing Albuquerque Center
Tue 05:52:22 PM 33.7981 -112.0156 56° Northeast 322 371 13,800 1,839 Climbing Albuquerque Center
Tue 05:53:24 PM 33.8247 -111.9108 73° East 331 381 15,000 581 Climbing Albuquerque Center
Tue 05:54:26 PM 33.8606 -111.8164 65° Northeast 319 367 15,000  Level Albuquerque Center
Tue 05:55:27 PM 33.9300 -111.7661 31° Northeast 298 343 15,000  Level Albuquerque Center
Tue 05:56:29 PM 34.0208 -111.7317 17° North 296 341 15,000  Level Albuquerque Center
Tue 05:57:31 PM 34.0978 -111.7028 17° North 294 338 15,000  Level Albuquerque Center
Tue 05:58:33 PM 34.1772 -111.6786 14° North 291 335 15,000  Level Albuquerque Center
Tue 05:59:36 PM 34.2489 -111.6261 31° Northeast 304 350 15,000  Level Albuquerque Center
Tue 06:00:38 PM 34.3219 -111.5464 42° Northeast 298 343 15,000  Level Albuquerque Center
Tue 06:01:40 PM 34.3839 -111.4856 39° Northeast 291 335 15,000  Level Albuquerque Center
Tue 06:02:42 PM 34.4428 -111.4269 39° Northeast 280 322 15,000  Level Albuquerque Center
Tue 06:03:44 PM 34.4992 -111.3689 40° Northeast 272 313 15,000 48 Level Albuquerque Center
Tue 06:04:46 PM 34.5544 -111.3136 39° Northeast 262 302 15,100 48 Climbing Albuquerque Center
Tue 06:05:48 PM 34.6128 -111.2550 40° Northeast 266 306 15,100  Level Albuquerque Center
Tue 06:06:50 PM 34.6800 -111.1867 40° Northeast 265 305 15,100  Level Albuquerque Center
Tue 06:07:52 PM 34.7375 -111.1264 41° Northeast 269 310 15,100 -49 Level Albuquerque Center
Tue 06:08:53 PM 34.7969 -111.0675 39° Northeast 275 316 15,000 -98 Descending Albuquerque Center
Tue 06:09:55 PM 34.8539 -111.0081 41° Northeast 271 312 14,900  Descending Albuquerque Center
Tue 06:10:57 PM 34.9083 -110.9514 40° Northeast 261 300 15,000 48 Climbing Albuquerque Center
Tue 06:11:59 PM 34.9636 -110.8953 40° Northeast 259 298 15,000  Level Albuquerque Center
Tue 06:13:01 PM 35.0219 -110.8617 25° Northeast 242 278 15,000  Level Albuquerque Center
Tue 06:14:03 PM 35.0686 -110.9339 308° West 238 274 15,000  Level Albuquerque Center
Tue 06:15:05 PM 35.0822 -111.0114 282° West 243 280 15,000 48 Level Albuquerque Center
Tue 06:16:07 PM 35.0892 -111.0942 276° West 244 281 15,100  Climbing Albuquerque Center
Tue 06:17:09 PM 35.0969 -111.1747 277° West 243 280 15,000 -97 Descending Albuquerque Center
Tue 06:18:11 PM 35.0444 -111.2258 219° Southwest 245 282 14,900 48 Descending Albuquerque Center
Tue 06:19:13 PM 34.9894 -111.2714 214° Southwest 242 278 15,100 48 Climbing Albuquerque Center
Tue 06:20:15 PM 34.9219 -111.3272 214° Southwest 243 280 15,000 -49 Descending Albuquerque Center
Tue 06:21:16 PM 34.8639 -111.3767 215° Southwest 252 290 15,000  Level Albuquerque Center
Tue 06:22:18 PM 34.8044 -111.4253 214° Southwest 256 295 15,000  Level Albuquerque Center
Tue 06:23:20 PM 34.7472 -111.4728 214° Southwest 253 291 15,000  Level Albuquerque Center
Tue 06:24:22 PM 34.6942 -111.5161 214° Southwest 236 272 15,000  Level Albuquerque Center
Tue 06:25:24 PM 34.6439 -111.5578 214° Southwest 224 258 15,000  Level Albuquerque Center
Tue 06:26:26 PM 34.5656 -111.6217 214° Southwest 284 327 15,000 -677 Level Albuquerque Center
Tue 06:27:28 PM 34.4986 -111.6769 214° Southwest 294 338 13,600 -1,500 Descending Albuquerque Center
Tue 06:28:30 PM 34.4347 -111.7297 214° Southwest 284 327 11,900 -1,258 Descending Albuquerque Center
Tue 06:29:32 PM 34.3725 -111.7806 214° Southwest 276 318 11,000 -439 Descending Albuquerque Center
Tue 06:30:33 PM 34.3119 -111.8292 214° Southwest 266 306 11,000  Level Albuquerque Center
Tue 06:31:35 PM 34.2425 -111.8864 214° Southwest 256 295 11,000  Level Albuquerque Center
Tue 06:32:37 PM 34.1778 -111.9233 205° Southwest 267 307 11,000 -484 Level Albuquerque Center
Tue 06:33:39 PM 34.1036 -111.9264 182° South 268 308 10,000 -1,403 Descending Albuquerque Center
Tue 06:34:41 PM 34.0286 -111.9311 183° South 273 314 8,100 -1,065 Descending Albuquerque Center
Tue 06:35:43 PM 33.9578 -111.9361 183° South 261 300 7,800 -532 Descending Albuquerque Center
Tue 06:36:45 PM 33.8800 -111.9283 175° South 238 274 7,000 -726 Descending Albuquerque Center
Tue 06:37:47 PM 33.8161 -111.9136 169° South 237 273 6,300 -1,610 Descending Albuquerque Center
Tue 06:38:48 PM 33.7550 -111.8889 161° South 234 269 3,700 -1,659 Descending Albuquerque Center
Tue 06:39:50 PM 33.7033 -111.8786 171° South 200 230 2,900 -532 Descending Albuquerque Center
Tue 06:40:52 PM 33.6625 -111.8725 173° South 171 197 2,600 -484 Descending Albuquerque Center
Tue 06:41:54 PM 33.6336 -111.8975 216° Southwest 139 160 1,900 -677 Descending Albuquerque Center
Tue 06:43:00 PM 33.6229 -111.9105 180° South  Level Estimated

Login

Don't have an account? Register now (free) for customized features, flight alerts, and more!